createdAt,value
2022-10-17T00:00:48.408Z,13.68
2022-10-17T00:03:31.056Z,14.80
2022-10-17T00:05:58.527Z,13.80
2022-10-17T00:08:26.240Z,14.65
2022-10-17T00:10:59.330Z,13.35
2022-10-17T00:13:27.062Z,11.60
2022-10-17T00:15:54.898Z,10.25
2022-10-17T00:18:23.011Z,10.30
2022-10-17T00:20:50.737Z,11.27
2022-10-17T00:23:18.578Z,14.00
2022-10-17T00:25:46.122Z,14.57
2022-10-17T00:28:15.966Z,14.95
2022-10-17T00:30:43.271Z,15.45
2022-10-17T00:33:11.346Z,19.10
2022-10-17T00:35:38.645Z,21.98
2022-10-17T00:38:06.371Z,22.73
2022-10-17T00:40:33.693Z,19.95
2022-10-17T00:43:01.457Z,17.83
2022-10-17T00:45:31.434Z,12.75
2022-10-17T00:48:03.797Z,14.32
2022-10-17T00:50:32.053Z,11.95
2022-10-17T00:53:02.778Z,11.50
2022-10-17T00:55:33.255Z,14.00
2022-10-17T00:58:04.899Z,11.55
2022-10-17T01:00:33.923Z,13.13
2022-10-17T01:03:01.453Z,10.43
2022-10-17T01:05:29.342Z,14.50
2022-10-17T01:07:57.250Z,13.30
2022-10-17T01:10:32.006Z,12.98
2022-10-17T01:13:08.620Z,15.82
2022-10-17T01:15:49.005Z,22.25
2022-10-17T01:18:29.691Z,13.00
2022-10-17T01:21:32.196Z,11.50
2022-10-17T01:24:40.617Z,10.98
2022-10-17T01:27:41.043Z,10.27
2022-10-17T01:30:45.149Z,10.05
2022-10-17T01:33:16.591Z,11.30
2022-10-17T01:35:52.813Z,11.73
2022-10-17T01:38:25.184Z,11.95
2022-10-17T01:40:59.889Z,12.32
2022-10-17T01:43:34.321Z,25.30
2022-10-17T01:46:10.550Z,20.63
2022-10-17T01:48:41.252Z,22.33
2022-10-17T01:51:14.660Z,12.57
2022-10-17T01:53:47.291Z,11.80
2022-10-17T01:56:17.848Z,22.40
2022-10-17T01:58:50.895Z,18.42
2022-10-17T02:01:21.337Z,19.20
2022-10-17T02:03:51.194Z,13.93
2022-10-17T02:06:18.785Z,15.55
2022-10-17T02:08:48.093Z,13.55
2022-10-17T02:11:17.702Z,16.08
2022-10-17T02:14:00.820Z,17.45
2022-10-17T02:16:37.564Z,18.35
2022-10-17T02:19:24.295Z,13.68
2022-10-17T02:21:57.842Z,11.73
2022-10-17T02:24:32.591Z,10.95
2022-10-17T02:27:08.968Z,12.50
2022-10-17T02:29:45.655Z,13.18
2022-10-17T02:34:52.873Z,12.18
2022-10-17T02:37:27.535Z,11.43
2022-10-17T02:39:58.086Z,11.52
2022-10-17T02:42:28.107Z,12.77
2022-10-17T02:44:59.212Z,14.00
2022-10-17T02:47:35.099Z,14.15
2022-10-17T02:50:02.852Z,11.48
2022-10-17T02:52:37.445Z,11.45
2022-10-17T02:55:11.204Z,14.75
2022-10-17T02:57:41.876Z,17.42
2022-10-17T03:00:13.424Z,15.20
2022-10-17T03:02:44.812Z,13.20
2022-10-17T03:05:14.501Z,10.88
2022-10-17T03:07:42.047Z,10.77
2022-10-17T03:10:09.714Z,10.10
2022-10-17T03:12:37.613Z,16.88
2022-10-17T03:15:06.502Z,16.17
2022-10-17T03:17:34.350Z,14.55
2022-10-17T03:20:03.869Z,15.23
2022-10-17T03:22:31.970Z,15.15
2022-10-17T03:24:59.390Z,15.77
2022-10-17T03:27:27.229Z,26.00
2022-10-17T03:29:54.812Z,20.48
2022-10-17T03:32:22.461Z,17.02
2022-10-17T03:34:49.744Z,17.67
2022-10-17T03:37:18.704Z,20.10
2022-10-17T03:39:45.920Z,24.15
2022-10-17T03:42:13.558Z,23.63
2022-10-17T03:44:40.768Z,21.52
2022-10-17T03:47:10.553Z,17.77
2022-10-17T03:49:40.679Z,18.52
2022-10-17T03:52:11.700Z,27.17
2022-10-17T03:54:40.237Z,18.35
2022-10-17T03:57:08.172Z,17.30
2022-10-17T03:59:35.455Z,17.00
2022-10-17T04:02:03.558Z,16.13
2022-10-17T04:04:30.842Z,15.05
2022-10-17T04:06:58.480Z,17.98
2022-10-17T04:09:25.764Z,24.60
2022-10-17T04:11:54.895Z,15.85
2022-10-17T04:14:22.174Z,16.33
2022-10-17T04:16:49.994Z,19.00
2022-10-17T04:19:17.224Z,18.65
2022-10-17T04:21:44.926Z,25.42
2022-10-17T04:24:12.176Z,17.73
2022-10-17T04:26:39.764Z,24.85
2022-10-17T04:29:08.477Z,30.42
2022-10-17T04:31:36.371Z,29.00
2022-10-17T04:34:03.748Z,26.13
2022-10-17T04:36:31.426Z,20.67
2022-10-17T04:39:00.410Z,18.17
2022-10-17T04:41:27.944Z,17.98
2022-10-17T04:43:55.243Z,18.60
2022-10-17T04:46:24.358Z,16.35
2022-10-17T04:48:51.602Z,19.88
2022-10-17T04:51:21.793Z,16.77
2022-10-17T04:53:51.769Z,21.58
2022-10-17T04:56:22.230Z,23.45
2022-10-17T04:58:49.937Z,16.05
2022-10-17T05:01:20.612Z,18.45
2022-10-17T05:03:49.717Z,14.05
2022-10-17T05:06:22.326Z,15.75
2022-10-17T05:08:50.064Z,11.73
2022-10-17T05:11:20.155Z,13.65
2022-10-17T05:13:51.077Z,14.98
2022-10-17T05:16:19.851Z,13.30
2022-10-17T05:18:52.853Z,10.60
2022-10-17T05:21:22.373Z,11.00
2022-10-17T05:23:50.413Z,12.50
2022-10-17T05:26:18.485Z,16.33
2022-10-17T05:28:45.859Z,18.02
2022-10-17T05:31:13.887Z,14.00
2022-10-17T05:33:41.454Z,17.13
2022-10-17T05:36:10.735Z,17.65
2022-10-17T05:38:38.022Z,12.95
2022-10-17T05:41:06.149Z,13.35
2022-10-17T05:43:34.226Z,13.45
2022-10-17T05:46:04.600Z,13.40
2022-10-17T05:48:31.929Z,12.20
2022-10-17T05:51:00.532Z,11.48
2022-10-17T05:53:32.478Z,13.63
2022-10-17T06:01:15.852Z,14.07
2022-10-17T06:03:43.188Z,15.02
2022-10-17T06:06:13.292Z,15.07
2022-10-17T06:08:42.003Z,16.20
2022-10-17T06:11:10.582Z,15.93
2022-10-17T06:13:40.906Z,16.80
2022-10-17T06:16:09.615Z,19.40
2022-10-17T06:18:36.770Z,22.10
2022-10-17T06:21:06.100Z,21.75
2022-10-17T06:23:33.385Z,20.65
2022-10-17T06:26:04.429Z,21.92
2022-10-17T06:28:32.262Z,21.02
2022-10-17T06:31:00.283Z,20.85
2022-10-17T06:33:27.533Z,21.33
2022-10-17T06:35:58.161Z,22.38
2022-10-17T06:38:25.601Z,23.20
2022-10-17T06:40:53.156Z,20.88
2022-10-17T06:43:26.946Z,21.40
2022-10-17T06:48:22.997Z,21.30
2022-10-17T06:50:50.514Z,23.10
2022-10-17T06:53:17.840Z,23.15
2022-10-17T06:55:45.617Z,22.80
2022-10-17T06:58:13.023Z,22.20
2022-10-17T07:00:42.130Z,21.23
2022-10-17T07:03:09.546Z,22.40
2022-10-17T07:05:37.268Z,21.20
2022-10-17T07:08:05.193Z,21.38
2022-10-17T07:10:32.816Z,18.63
2022-10-17T07:13:01.122Z,19.65
2022-10-17T07:15:28.632Z,19.88
2022-10-17T07:17:57.232Z,19.13
2022-10-17T07:20:25.125Z,19.25
2022-10-17T07:22:52.643Z,18.10
2022-10-17T07:25:20.339Z,18.65
2022-10-17T07:27:48.775Z,16.38
2022-10-17T07:30:16.656Z,18.15
2022-10-17T07:32:44.423Z,17.83
2022-10-17T07:35:13.987Z,18.05
2022-10-17T07:37:41.490Z,17.27
2022-10-17T07:40:09.871Z,17.05
2022-10-17T07:45:10.643Z,17.23
2022-10-17T07:47:37.897Z,15.98
2022-10-17T07:50:06.372Z,16.95
2022-10-17T07:52:35.376Z,16.17
2022-10-17T07:55:02.939Z,16.92
2022-10-17T07:57:30.242Z,16.80
2022-10-17T07:59:57.807Z,15.93
2022-10-17T08:02:29.202Z,16.08
2022-10-17T08:07:27.011Z,15.18
2022-10-17T08:09:58.502Z,15.90
2022-10-17T08:12:25.923Z,16.15
2022-10-17T08:14:53.501Z,14.63
2022-10-17T08:17:21.006Z,15.45
2022-10-17T08:19:56.941Z,14.50
2022-10-17T08:22:29.630Z,15.18
2022-10-17T08:24:59.079Z,15.18
2022-10-17T08:27:26.512Z,15.98
2022-10-17T08:29:54.479Z,14.73
2022-10-17T08:32:23.766Z,16.23
2022-10-17T08:34:51.652Z,15.80
2022-10-17T08:37:19.206Z,15.02
2022-10-17T08:39:46.827Z,14.45
2022-10-17T08:42:33.286Z,14.65
2022-10-17T08:45:09.879Z,13.77
2022-10-17T08:47:42.443Z,13.88
2022-10-17T08:50:23.091Z,14.55
2022-10-17T08:52:53.638Z,13.20
2022-10-17T08:55:30.442Z,13.80
2022-10-17T08:57:59.296Z,13.43
2022-10-17T09:00:29.814Z,13.48
2022-10-17T09:03:14.502Z,12.77
2022-10-17T09:05:50.230Z,12.48
2022-10-17T09:08:37.565Z,12.23
2022-10-17T09:11:16.041Z,12.43
2022-10-17T09:13:57.223Z,12.15
2022-10-17T09:16:40.373Z,11.10
2022-10-17T09:19:12.941Z,12.27
2022-10-17T09:21:46.342Z,11.07
2022-10-17T09:24:17.998Z,10.55
2022-10-17T09:26:46.161Z,11.00
2022-10-17T09:29:22.010Z,10.80
2022-10-17T09:31:58.515Z,11.82
2022-10-17T09:34:29.186Z,11.20
2022-10-17T09:36:58.709Z,9.98
2022-10-17T09:39:29.804Z,10.02
2022-10-17T09:41:59.370Z,10.70
2022-10-17T09:44:31.676Z,9.95
2022-10-17T09:47:19.028Z,8.93
2022-10-17T09:49:48.338Z,10.38
2022-10-17T09:52:18.426Z,10.57
2022-10-17T09:54:48.624Z,10.40
2022-10-17T09:57:18.655Z,9.20
2022-10-17T09:59:55.761Z,9.00
2022-10-17T10:02:25.057Z,9.15
2022-10-17T10:05:06.687Z,9.23
2022-10-17T10:07:37.550Z,9.07
2022-10-17T10:10:08.489Z,9.32
2022-10-17T10:12:38.059Z,9.82
2022-10-17T10:15:31.481Z,9.50
2022-10-17T10:17:59.364Z,9.18
2022-10-17T10:20:31.026Z,9.85
2022-10-17T10:23:12.705Z,9.02
2022-10-17T10:25:51.921Z,9.15
2022-10-17T10:28:19.926Z,10.05
2022-10-17T10:30:52.968Z,10.05
2022-10-17T10:33:23.710Z,9.20
2022-10-17T10:35:57.500Z,9.63
2022-10-17T10:38:25.579Z,9.30
2022-10-17T10:40:55.269Z,9.15
2022-10-17T10:43:29.596Z,9.23
2022-10-17T10:45:59.102Z,10.10
2022-10-17T10:48:30.442Z,9.27
2022-10-17T10:51:01.766Z,8.32
2022-10-17T10:53:41.864Z,9.55
2022-10-17T10:56:14.554Z,8.82
2022-10-17T10:58:53.437Z,9.00
2022-10-17T11:01:28.285Z,8.63
2022-10-17T11:04:19.757Z,8.40
2022-10-17T11:06:48.238Z,8.70
2022-10-17T11:09:32.947Z,8.38
2022-10-17T11:12:12.240Z,8.20
2022-10-17T11:14:45.359Z,8.27
2022-10-17T11:17:22.214Z,8.90
2022-10-17T11:19:57.049Z,8.00
2022-10-17T11:22:29.355Z,8.75
2022-10-17T11:25:00.669Z,7.75
2022-10-17T11:27:29.710Z,8.75
2022-10-17T11:29:58.543Z,8.48
2022-10-17T11:32:31.837Z,8.32
2022-10-17T11:35:05.619Z,8.18
2022-10-17T11:37:36.842Z,8.40
2022-10-17T11:40:14.826Z,8.15
2022-10-17T11:42:55.092Z,8.32
2022-10-17T11:45:26.472Z,8.40
2022-10-17T11:48:02.119Z,8.52
2022-10-17T11:53:22.182Z,8.32
2022-10-17T11:55:52.793Z,8.18
2022-10-17T11:58:31.352Z,8.20
2022-10-17T12:01:07.727Z,8.75
2022-10-17T12:03:47.101Z,8.27
2022-10-17T12:06:20.605Z,8.75
2022-10-17T12:09:07.401Z,9.43
2022-10-17T12:11:45.527Z,9.10
2022-10-17T12:16:54.999Z,8.60
2022-10-17T12:19:33.200Z,8.40
2022-10-17T12:22:07.247Z,8.88
2022-10-17T12:24:40.553Z,8.88
2022-10-17T12:27:39.784Z,9.55
2022-10-17T12:30:18.734Z,9.45
2022-10-17T12:33:12.115Z,9.35
2022-10-17T12:35:40.952Z,9.68
2022-10-17T12:38:27.420Z,8.85
2022-10-17T12:41:05.887Z,8.85
2022-10-17T12:43:57.196Z,9.10
2022-10-17T12:46:57.289Z,9.07
2022-10-17T12:49:39.180Z,8.73
2022-10-17T12:52:20.969Z,9.48
2022-10-17T12:55:00.556Z,9.75
2022-10-17T12:57:41.263Z,9.27
2022-10-17T13:00:17.555Z,9.15
2022-10-17T13:02:45.574Z,9.55
2022-10-17T13:05:18.337Z,8.70
2022-10-17T13:07:49.720Z,9.60
2022-10-17T13:10:23.476Z,9.07
2022-10-17T13:12:53.208Z,9.73
2022-10-17T13:15:21.845Z,9.10
2022-10-17T13:17:57.776Z,8.95
2022-10-17T13:20:30.574Z,8.52
2022-10-17T13:23:00.645Z,8.73
2022-10-17T13:25:28.680Z,8.82
2022-10-17T13:28:11.826Z,8.70
2022-10-17T13:30:39.486Z,8.23
2022-10-17T13:33:27.540Z,9.32
2022-10-17T13:36:00.293Z,8.73
2022-10-17T13:38:31.890Z,8.70
2022-10-17T13:41:23.226Z,9.00
2022-10-17T13:43:49.669Z,8.43
2022-10-17T13:46:37.351Z,8.75
2022-10-17T13:49:12.859Z,8.65
2022-10-17T13:51:44.317Z,8.48
2022-10-17T13:54:30.772Z,8.52
2022-10-17T13:56:59.637Z,8.10
2022-10-17T13:59:32.431Z,8.48
2022-10-17T14:02:01.083Z,8.90
2022-10-17T14:04:33.056Z,8.98
2022-10-17T14:07:23.207Z,9.45
2022-10-17T14:09:52.078Z,9.13
2022-10-17T14:12:21.734Z,9.20
2022-10-17T14:15:09.777Z,8.88
2022-10-17T14:17:39.571Z,9.63
2022-10-17T14:20:47.878Z,8.93
2022-10-17T14:23:21.462Z,8.38
2022-10-17T14:25:45.215Z,8.60
2022-10-17T14:28:15.629Z,7.68
2022-10-17T14:30:56.408Z,7.97
2022-10-17T14:33:28.507Z,7.38
2022-10-17T14:35:57.824Z,8.45
2022-10-17T14:38:26.111Z,7.53
2022-10-17T14:41:29.705Z,7.35
2022-10-17T14:43:54.395Z,7.22
2022-10-17T14:46:22.139Z,7.80
2022-10-17T14:48:54.124Z,7.40
2022-10-17T14:51:21.971Z,7.22
2022-10-17T14:54:17.630Z,7.05
2022-10-17T14:56:50.857Z,7.00
2022-10-17T14:59:35.471Z,7.32
2022-10-17T15:02:05.996Z,7.07
2022-10-17T15:04:33.495Z,7.30
2022-10-17T15:07:00.697Z,7.10
2022-10-17T15:09:28.446Z,6.72
2022-10-17T15:12:00.205Z,7.65
2022-10-17T15:14:27.864Z,7.40
2022-10-17T15:16:55.174Z,6.90
2022-10-17T15:19:22.705Z,7.10
2022-10-17T15:21:50.062Z,6.28
2022-10-17T15:24:17.668Z,6.82
2022-10-17T15:26:44.939Z,6.72
2022-10-17T15:29:15.991Z,7.07
2022-10-17T15:31:43.329Z,7.05
2022-10-17T15:34:11.205Z,7.38
2022-10-17T15:36:41.697Z,7.35
2022-10-17T15:39:10.128Z,7.35
2022-10-17T15:41:37.482Z,7.45
2022-10-17T15:44:05.593Z,6.88
2022-10-17T15:46:36.108Z,7.00
2022-10-17T15:49:05.635Z,6.60
2022-10-17T15:51:35.707Z,6.95
2022-10-17T15:54:03.427Z,7.95
2022-10-17T15:56:33.057Z,7.65
2022-10-17T15:59:02.653Z,7.03
2022-10-17T16:01:31.682Z,8.18
2022-10-17T16:04:00.921Z,7.65
2022-10-17T16:06:28.249Z,8.43
2022-10-17T16:08:55.952Z,8.23
2022-10-17T16:11:30.803Z,8.15
2022-10-17T16:14:00.579Z,7.60
2022-10-17T16:16:28.060Z,7.50
2022-10-17T16:18:55.953Z,8.43
2022-10-17T16:21:27.793Z,7.63
2022-10-17T16:23:55.983Z,8.07
2022-10-17T16:26:23.609Z,7.93
2022-10-17T16:28:51.250Z,7.95
2022-10-17T16:31:22.765Z,8.98
2022-10-17T16:33:52.958Z,8.18
2022-10-17T16:36:20.716Z,8.48
2022-10-17T16:38:50.455Z,8.48
2022-10-17T16:41:22.431Z,7.35
2022-10-17T16:43:50.899Z,9.38
2022-10-17T16:46:18.856Z,9.32
2022-10-17T16:48:47.341Z,9.60
2022-10-17T16:51:15.865Z,10.35
2022-10-17T16:53:43.597Z,9.02
2022-10-17T16:56:14.667Z,8.00
2022-10-17T16:58:42.694Z,9.48
2022-10-17T17:01:12.003Z,10.95
2022-10-17T17:03:41.810Z,8.77
2022-10-17T17:06:12.750Z,9.48
2022-10-17T17:08:43.334Z,8.55
2022-10-17T17:11:14.941Z,8.02
2022-10-17T17:13:42.925Z,10.68
2022-10-17T17:16:12.579Z,10.27
2022-10-17T17:18:41.149Z,10.13
2022-10-17T17:21:10.503Z,10.35
2022-10-17T17:23:40.339Z,10.18
2022-10-17T17:26:10.446Z,9.57
2022-10-17T17:28:40.184Z,10.40
2022-10-17T17:31:12.452Z,11.73
2022-10-17T17:33:41.373Z,11.60
2022-10-17T17:36:12.796Z,13.13
2022-10-17T17:38:40.427Z,12.65
2022-10-17T17:41:07.938Z,14.75
2022-10-17T17:43:36.131Z,12.60
2022-10-17T17:46:05.316Z,13.52
2022-10-17T17:48:33.707Z,12.93
2022-10-17T17:51:04.050Z,12.02
2022-10-17T17:53:32.042Z,11.95
2022-10-17T17:56:04.051Z,12.68
2022-10-17T17:58:32.302Z,12.02
2022-10-17T18:00:59.641Z,13.88
2022-10-17T18:03:28.675Z,12.88
2022-10-17T18:05:58.021Z,12.38
2022-10-17T18:08:25.788Z,12.10
2022-10-17T18:10:53.122Z,11.50
2022-10-17T18:13:21.108Z,11.90
2022-10-17T18:15:50.330Z,10.93
2022-10-17T18:18:18.307Z,11.70
2022-10-17T18:20:47.032Z,10.68
2022-10-17T18:23:14.698Z,11.90
2022-10-17T18:25:41.995Z,12.30
2022-10-17T18:28:10.626Z,12.00
2022-10-17T18:30:38.354Z,12.35
2022-10-17T18:33:06.104Z,11.65
2022-10-17T18:35:34.686Z,11.60
2022-10-17T18:38:03.720Z,11.23
2022-10-17T18:40:31.051Z,10.38
2022-10-17T18:42:58.646Z,10.98
2022-10-17T18:45:26.289Z,11.45
2022-10-17T18:47:54.071Z,9.27
2022-10-17T18:50:23.192Z,10.65
2022-10-17T18:52:51.367Z,11.75
2022-10-17T18:55:20.142Z,11.13
2022-10-17T18:57:48.292Z,13.70
2022-10-17T19:00:16.079Z,9.95
2022-10-17T19:02:43.672Z,10.15
2022-10-17T19:05:10.918Z,14.90
2022-10-17T19:07:38.547Z,15.48
2022-10-17T19:10:06.844Z,14.23
2022-10-17T19:12:36.072Z,18.35
2022-10-17T19:15:03.855Z,13.45
2022-10-17T19:17:32.002Z,12.55
2022-10-17T19:19:59.453Z,12.80
2022-10-17T19:22:27.109Z,12.75
2022-10-17T19:24:54.472Z,12.30
2022-10-17T19:27:22.417Z,13.35
2022-10-17T19:29:51.114Z,12.82
2022-10-17T19:32:20.749Z,13.30
2022-10-17T19:34:50.278Z,14.20
2022-10-17T19:37:17.757Z,11.65
2022-10-17T19:39:45.147Z,12.60
2022-10-17T19:42:12.942Z,13.00
2022-10-17T19:44:40.209Z,13.10
2022-10-17T19:47:09.292Z,12.88
2022-10-17T19:49:36.611Z,12.20
2022-10-17T19:52:04.526Z,12.18
2022-10-17T19:54:31.999Z,11.07
2022-10-17T19:56:59.631Z,10.35
2022-10-17T19:59:26.863Z,10.75
2022-10-17T20:01:54.561Z,9.38
2022-10-17T20:04:23.344Z,8.70
2022-10-17T20:06:51.126Z,9.40
2022-10-17T20:09:18.395Z,9.05
2022-10-17T20:11:46.286Z,8.18
2022-10-17T20:14:13.592Z,8.73
2022-10-17T20:16:41.185Z,7.80
2022-10-17T20:19:10.031Z,8.38
2022-10-17T20:21:39.790Z,7.32
2022-10-17T20:24:11.740Z,7.78
2022-10-17T20:26:40.199Z,7.40
2022-10-17T20:29:12.065Z,6.85
2022-10-17T20:31:41.465Z,7.25
2022-10-17T20:34:11.555Z,7.45
2022-10-17T20:36:41.037Z,7.00
2022-10-17T20:39:10.058Z,6.95
2022-10-17T20:41:38.199Z,6.57
2022-10-17T20:44:05.814Z,5.78
2022-10-17T20:46:38.522Z,6.05
2022-10-17T20:49:15.038Z,5.85
2022-10-17T20:51:44.440Z,5.25
2022-10-17T20:54:12.189Z,5.30
2022-10-17T20:56:40.343Z,6.00
2022-10-17T20:59:10.939Z,5.88
2022-10-17T21:01:38.554Z,6.53
2022-10-17T21:04:33.267Z,5.72
2022-10-17T21:06:55.014Z,6.13
2022-10-17T21:09:22.569Z,5.97
2022-10-17T21:11:51.032Z,5.63
2022-10-17T21:14:18.516Z,5.53
2022-10-17T21:16:46.228Z,5.32
2022-10-17T21:19:14.589Z,6.00
2022-10-17T21:21:44.703Z,5.22
2022-10-17T21:24:14.987Z,5.78
2022-10-17T21:26:44.258Z,5.43
2022-10-17T21:29:12.671Z,5.82
2022-10-17T21:31:42.033Z,6.00
2022-10-17T21:34:16.964Z,5.72
2022-10-17T21:36:45.245Z,5.95
2022-10-17T21:39:15.062Z,5.57
2022-10-17T21:41:43.718Z,5.40
2022-10-17T21:44:13.963Z,5.40
2022-10-17T21:46:42.007Z,5.93
2022-10-17T21:49:10.863Z,6.13
2022-10-17T21:51:39.603Z,6.22
2022-10-17T21:54:07.302Z,6.20
2022-10-17T21:56:36.566Z,5.90
2022-10-17T21:59:05.007Z,5.68
2022-10-17T22:01:34.584Z,6.15
2022-10-17T22:04:03.757Z,5.97
2022-10-17T22:06:41.056Z,5.72
2022-10-17T22:09:11.790Z,5.88
2022-10-17T22:11:41.842Z,6.03
2022-10-17T22:14:12.227Z,5.47
2022-10-17T22:16:40.754Z,6.10
2022-10-17T22:19:08.759Z,6.00
2022-10-17T22:21:36.876Z,5.43
2022-10-17T22:24:07.047Z,5.80
2022-10-17T22:26:36.661Z,5.35
2022-10-17T22:29:07.258Z,5.40
2022-10-17T22:31:35.845Z,5.38
2022-10-17T22:34:06.686Z,5.85
2022-10-17T22:36:35.778Z,5.55
2022-10-17T22:39:04.038Z,5.00
2022-10-17T22:41:31.915Z,5.68
2022-10-17T22:43:59.246Z,5.07
2022-10-17T22:46:28.741Z,5.82
2022-10-17T22:48:56.128Z,5.35
2022-10-17T22:53:56.052Z,5.47
2022-10-17T22:56:24.088Z,5.88
2022-10-17T22:58:51.965Z,5.25
2022-10-17T23:01:21.867Z,5.50
2022-10-17T23:03:51.239Z,6.07
2022-10-17T23:06:19.730Z,6.30
2022-10-17T23:08:47.539Z,7.00
2022-10-17T23:11:16.165Z,5.68
2022-10-17T23:13:43.435Z,6.07
2022-10-17T23:16:11.125Z,6.22
2022-10-17T23:18:39.052Z,6.00
2022-10-17T23:21:08.882Z,6.57
2022-10-17T23:23:36.888Z,6.57
2022-10-17T23:26:08.999Z,5.90
2022-10-17T23:28:36.576Z,5.63
2022-10-17T23:31:12.431Z,6.22
2022-10-17T23:33:39.763Z,6.80
2022-10-17T23:36:09.906Z,6.35
2022-10-17T23:38:37.379Z,6.45
2022-10-17T23:41:05.431Z,6.50
2022-10-17T23:43:32.975Z,6.18
2022-10-17T23:46:01.167Z,5.25
2022-10-17T23:48:29.298Z,5.82
2022-10-17T23:50:57.293Z,6.00
2022-10-17T23:53:27.124Z,5.75
2022-10-17T23:55:54.800Z,5.47
2022-10-17T23:58:22.074Z,5.55
